This is the latest recevied weather packets stored in our database for station/object KD2RHT-13. If no packets are shown the sender has not sent any weather packets the latest 10 day(s).
| Time | Temp. | Humidity | Pressure | Rain* | Wind** | Luminosity | Snow |
|---|---|---|---|---|---|---|---|
| 1777397375 | 19.44° C | 43% | 1017.3 hPa | 0 mm | - | 352 W/m² | - |
| 1777397071 | 19.44° C | 43% | 1017.3 hPa | 0 mm | - | 324 W/m² | - |
| 1777396768 | 19.44° C | 43% | 1017.6 hPa | 0 mm | - | 299 W/m² | - |
| 1777396162 | 19.44° C | 41% | 1017.6 hPa | 0 mm | - | 286 W/m² | - |
| 1777395858 | 19.44° C | 42% | 1017.3 hPa | 0 mm | - | 291 W/m² | - |
| 1777394948 | 19.44° C | 41% | 1017.6 hPa | 0 mm | - | 248 W/m² | - |
| 1777394036 | 19.44° C | 40% | 1017.6 hPa | 0 mm | - | 265 W/m² | - |
| 1777390088 | 20° C | 42% | 1017.3 hPa | 0 mm | - | 410 W/m² | - |
| 1777389481 | 20° C | 42% | 1017.6 hPa | 0 mm | - | 559 W/m² | - |
| 1777388269 | 20° C | 45% | 1017.3 hPa | 0 mm | - | 828 W/m² | - |
| 1777387057 | 18.89° C | 49% | 1017.3 hPa | 0 mm | - | 418 W/m² | - |
| 1777386754 | 18.89° C | 48% | 1017.6 hPa | 0 mm | - | 437 W/m² | - |
| 1777386451 | 18.89° C | 49% | 1017.6 hPa | 0 mm | - | 368 W/m² | - |
| 1777386148 | 18.33° C | 50% | 1017.6 hPa | 0 mm | - | 363 W/m² | - |
| 1777385844 | 18.33° C | 51% | 1017.6 hPa | 0 mm | - | 347 W/m² | - |
| 1777385541 | 18.33° C | 50% | 1017.6 hPa | 0 mm | - | 359 W/m² | - |
| 1777385239 | 17.78° C | 53% | 1017.6 hPa | 0 mm | - | 350 W/m² | - |
| 1777384934 | 17.78° C | 52% | 1017.6 hPa | 0 mm | - | 333 W/m² | - |
| 1777384332 | 17.78° C | 51% | 1017.6 hPa | 0 mm | - | 315 W/m² | - |
| 1777383420 | 17.22° C | 54% | 1017.6 hPa | 0 mm | - | 177 W/m² | - |
| 1777383116 | 16.67° C | 58% | 1017.9 hPa | 0 mm | - | 152 W/m² | - |
| 1777382509 | 16.67° C | 57% | 1017.9 hPa | 0 mm | - | 149 W/m² | - |
| 1777382205 | 16.67° C | 58% | 1017.9 hPa | 0 mm | - | 160 W/m² | - |
| 1777381902 | 16.67° C | 59% | 1017.9 hPa | 0 mm | - | 164 W/m² | - |
| 1777380691 | 17.22° C | 57% | 1017.6 hPa | 0 mm | - | 236 W/m² | - |
* Rain latest hour (hover to see other rain measurements)
** Current wind speed in m/s (hover to see current wind gust speed)